sensor_id;sensor_type;location;lat;lon;timestamp;pressure;altitude;pressure_sealevel;temperature;humidity
75551;BME280;65071;53.082;18.218;2023-03-22T00:01:18;101061.94;;;8.02;78.82
75551;BME280;65071;53.082;18.218;2023-03-22T00:03:46;101057.53;;;7.99;78.97
75551;BME280;65071;53.082;18.218;2023-03-22T00:06:13;101052.14;;;7.97;79.30
75551;BME280;65071;53.082;18.218;2023-03-22T00:08:40;101046.06;;;7.95;78.97
75551;BME280;65071;53.082;18.218;2023-03-22T00:11:07;101040.38;;;7.92;78.87
75551;BME280;65071;53.082;18.218;2023-03-22T00:13:35;101040.63;;;7.89;78.63
75551;BME280;65071;53.082;18.218;2023-03-22T00:16:03;101037.84;;;7.86;78.56
75551;BME280;65071;53.082;18.218;2023-03-22T00:18:30;101038.38;;;7.84;78.74
75551;BME280;65071;53.082;18.218;2023-03-22T00:20:58;101035.33;;;7.80;78.98
75551;BME280;65071;53.082;18.218;2023-03-22T00:23:26;101033.06;;;7.77;79.00
75551;BME280;65071;53.082;18.218;2023-03-22T00:25:54;101027.41;;;7.74;79.27
75551;BME280;65071;53.082;18.218;2023-03-22T00:28:21;101025.71;;;7.71;79.40
75551;BME280;65071;53.082;18.218;2023-03-22T00:30:56;101027.73;;;7.68;78.85
75551;BME280;65071;53.082;18.218;2023-03-22T00:33:27;101027.90;;;7.69;79.01
75551;BME280;65071;53.082;18.218;2023-03-22T00:36:06;101028.55;;;7.67;79.71
75551;BME280;65071;53.082;18.218;2023-03-22T00:38:33;101027.88;;;7.64;80.25
75551;BME280;65071;53.082;18.218;2023-03-22T00:41:14;101025.55;;;7.63;80.21
75551;BME280;65071;53.082;18.218;2023-03-22T00:43:45;101023.02;;;7.61;80.24
75551;BME280;65071;53.082;18.218;2023-03-22T00:46:12;101026.04;;;7.61;79.85
75551;BME280;65071;53.082;18.218;2023-03-22T00:48:39;101020.46;;;7.62;79.74
75551;BME280;65071;53.082;18.218;2023-03-22T00:51:07;101015.91;;;7.62;79.69
75551;BME280;65071;53.082;18.218;2023-03-22T00:53:35;101015.14;;;7.63;79.55
75551;BME280;65071;53.082;18.218;2023-03-22T00:56:04;101013.67;;;7.65;79.01
75551;BME280;65071;53.082;18.218;2023-03-22T00:58:37;101010.08;;;7.67;79.28
75551;BME280;65071;53.082;18.218;2023-03-22T01:01:03;101009.86;;;7.70;79.36
75551;BME280;65071;53.082;18.218;2023-03-22T01:03:30;101007.73;;;7.72;79.32
75551;BME280;65071;53.082;18.218;2023-03-22T01:05:58;101011.66;;;7.74;79.38
75551;BME280;65071;53.082;18.218;2023-03-22T01:08:25;101009.52;;;7.76;79.07
75551;BME280;65071;53.082;18.218;2023-03-22T01:10:58;101005.73;;;7.79;79.59
75551;BME280;65071;53.082;18.218;2023-03-22T01:13:26;101006.20;;;7.80;79.58
75551;BME280;65071;53.082;18.218;2023-03-22T01:15:54;100997.55;;;7.80;79.16
75551;BME280;65071;53.082;18.218;2023-03-22T01:18:21;100997.95;;;7.82;79.53
75551;BME280;65071;53.082;18.218;2023-03-22T01:20:48;100991.34;;;7.81;79.03
75551;BME280;65071;53.082;18.218;2023-03-22T01:23:15;100989.20;;;7.81;78.93
75551;BME280;65071;53.082;18.218;2023-03-22T01:25:42;100985.00;;;7.82;79.30
75551;BME280;65071;53.082;18.218;2023-03-22T01:28:09;100980.96;;;7.81;79.69
75551;BME280;65071;53.082;18.218;2023-03-22T01:30:38;100975.52;;;7.80;79.26
75551;BME280;65071;53.082;18.218;2023-03-22T01:33:06;100974.61;;;7.82;79.12
75551;BME280;65071;53.082;18.218;2023-03-22T01:35:34;100968.96;;;7.84;79.06
75551;BME280;65071;53.082;18.218;2023-03-22T01:38:01;100966.07;;;7.86;79.06
75551;BME280;65071;53.082;18.218;2023-03-22T01:40:28;100958.67;;;7.89;78.98
75551;BME280;65071;53.082;18.218;2023-03-22T01:42:55;100952.07;;;7.90;78.56
75551;BME280;65071;53.082;18.218;2023-03-22T01:45:34;100953.63;;;7.93;78.92
75551;BME280;65071;53.082;18.218;2023-03-22T01:48:11;100950.23;;;7.95;79.11
75551;BME280;65071;53.082;18.218;2023-03-22T01:50:43;100941.21;;;7.98;78.45
75551;BME280;65071;53.082;18.218;2023-03-22T01:53:12;100941.56;;;8.00;78.65
75551;BME280;65071;53.082;18.218;2023-03-22T01:55:41;100937.28;;;8.00;79.04
75551;BME280;65071;53.082;18.218;2023-03-22T01:58:12;100934.63;;;7.99;79.17
75551;BME280;65071;53.082;18.218;2023-03-22T02:00:48;100934.15;;;7.97;79.48
75551;BME280;65071;53.082;18.218;2023-03-22T02:03:39;100934.62;;;7.95;79.12
75551;BME280;65071;53.082;18.218;2023-03-22T02:06:09;100929.13;;;7.95;78.96
75551;BME280;65071;53.082;18.218;2023-03-22T02:08:36;100924.65;;;7.95;78.85
75551;BME280;65071;53.082;18.218;2023-03-22T02:11:13;100922.85;;;7.93;79.24
75551;BME280;65071;53.082;18.218;2023-03-22T02:23:08;100917.11;;;7.91;79.00
75551;BME280;65071;53.082;18.218;2023-03-22T02:39:54;100914.65;;;8.03;78.57
75551;BME280;65071;53.082;18.218;2023-03-22T02:42:36;100918.77;;;8.07;78.56
75551;BME280;65071;53.082;18.218;2023-03-22T02:50:39;100918.64;;;8.14;78.16
75551;BME280;65071;53.082;18.218;2023-03-22T02:55:50;100911.34;;;8.18;78.23
75551;BME280;65071;53.082;18.218;2023-03-22T02:58:28;100909.45;;;8.17;78.36
75551;BME280;65071;53.082;18.218;2023-03-22T03:01:02;100910.23;;;8.18;78.25
75551;BME280;65071;53.082;18.218;2023-03-22T03:03:35;100907.08;;;8.19;78.04
75551;BME280;65071;53.082;18.218;2023-03-22T03:06:10;100911.23;;;8.21;78.05
75551;BME280;65071;53.082;18.218;2023-03-22T03:08:39;100910.27;;;8.24;78.35
75551;BME280;65071;53.082;18.218;2023-03-22T03:11:08;100901.05;;;8.25;78.33
75551;BME280;65071;53.082;18.218;2023-03-22T03:13:35;100896.17;;;8.26;78.39
75551;BME280;65071;53.082;18.218;2023-03-22T03:16:03;100898.70;;;8.28;78.31
75551;BME280;65071;53.082;18.218;2023-03-22T03:18:41;100903.55;;;8.29;78.33
75551;BME280;65071;53.082;18.218;2023-03-22T03:21:20;100905.89;;;8.31;78.20
75551;BME280;65071;53.082;18.218;2023-03-22T03:29:09;100901.34;;;8.46;77.54
75551;BME280;65071;53.082;18.218;2023-03-22T03:31:51;100901.64;;;8.50;77.79
75551;BME280;65071;53.082;18.218;2023-03-22T03:34:37;100898.95;;;8.52;77.48
75551;BME280;65071;53.082;18.218;2023-03-22T03:37:35;100896.22;;;8.55;77.53
75551;BME280;65071;53.082;18.218;2023-03-22T03:40:17;100896.14;;;8.56;77.30
75551;BME280;65071;53.082;18.218;2023-03-22T03:42:49;100898.75;;;8.57;77.57
75551;BME280;65071;53.082;18.218;2023-03-22T03:45:18;100898.65;;;8.56;78.01
75551;BME280;65071;53.082;18.218;2023-03-22T03:47:45;100899.41;;;8.55;78.26
75551;BME280;65071;53.082;18.218;2023-03-22T03:50:14;100893.85;;;8.55;77.76
75551;BME280;65071;53.082;18.218;2023-03-22T03:52:42;100893.47;;;8.55;77.80
75551;BME280;65071;53.082;18.218;2023-03-22T03:55:08;100890.96;;;8.56;78.42
75551;BME280;65071;53.082;18.218;2023-03-22T03:57:35;100890.52;;;8.56;77.93
75551;BME280;65071;53.082;18.218;2023-03-22T04:00:04;100884.37;;;8.59;77.92
75551;BME280;65071;53.082;18.218;2023-03-22T04:02:47;100876.14;;;8.61;78.27
75551;BME280;65071;53.082;18.218;2023-03-22T04:05:27;100874.27;;;8.60;78.57
75551;BME280;65071;53.082;18.218;2023-03-22T04:07:54;100876.61;;;8.57;78.95
75551;BME280;65071;53.082;18.218;2023-03-22T04:10:20;100878.59;;;8.54;79.15
75551;BME280;65071;53.082;18.218;2023-03-22T04:12:47;100874.95;;;8.54;79.02
75551;BME280;65071;53.082;18.218;2023-03-22T04:15:16;100869.21;;;8.54;79.07
75551;BME280;65071;53.082;18.218;2023-03-22T04:17:45;100868.66;;;8.52;79.62
75551;BME280;65071;53.082;18.218;2023-03-22T04:20:12;100870.23;;;8.51;79.11
75551;BME280;65071;53.082;18.218;2023-03-22T04:22:40;100871.46;;;8.51;79.39
75551;BME280;65071;53.082;18.218;2023-03-22T04:25:09;100866.34;;;8.52;79.26
75551;BME280;65071;53.082;18.218;2023-03-22T04:27:39;100861.94;;;8.53;79.40
75551;BME280;65071;53.082;18.218;2023-03-22T04:30:13;100861.94;;;8.53;79.82
75551;BME280;65071;53.082;18.218;2023-03-22T04:33:04;100859.87;;;8.52;79.61
75551;BME280;65071;53.082;18.218;2023-03-22T04:35:52;100861.35;;;8.52;79.95
75551;BME280;65071;53.082;18.218;2023-03-22T04:38:23;100859.73;;;8.48;80.99
75551;BME280;65071;53.082;18.218;2023-03-22T04:40:51;100864.73;;;8.42;80.90
75551;BME280;65071;53.082;18.218;2023-03-22T04:43:22;100861.75;;;8.40;80.68
75551;BME280;65071;53.082;18.218;2023-03-22T04:45:52;100860.02;;;8.39;80.92
75551;BME280;65071;53.082;18.218;2023-03-22T04:48:22;100854.98;;;8.37;81.03
75551;BME280;65071;53.082;18.218;2023-03-22T04:50:50;100850.90;;;8.35;81.04
75551;BME280;65071;53.082;18.218;2023-03-22T04:53:19;100847.55;;;8.32;81.76
75551;BME280;65071;53.082;18.218;2023-03-22T04:55:53;100846.05;;;8.29;81.73
75551;BME280;65071;53.082;18.218;2023-03-22T04:58:24;100844.93;;;8.28;81.46
75551;BME280;65071;53.082;18.218;2023-03-22T05:00:52;100844.18;;;8.26;82.01
75551;BME280;65071;53.082;18.218;2023-03-22T05:03:21;100840.65;;;8.25;81.46
75551;BME280;65071;53.082;18.218;2023-03-22T05:05:51;100842.42;;;8.25;81.81
75551;BME280;65071;53.082;18.218;2023-03-22T05:08:20;100841.01;;;8.25;81.81
75551;BME280;65071;53.082;18.218;2023-03-22T05:10:47;100838.71;;;8.25;81.80
75551;BME280;65071;53.082;18.218;2023-03-22T05:13:14;100834.33;;;8.24;81.96
75551;BME280;65071;53.082;18.218;2023-03-22T05:15:43;100829.27;;;8.22;82.10
75551;BME280;65071;53.082;18.218;2023-03-22T05:18:12;100832.81;;;8.21;82.14
75551;BME280;65071;53.082;18.218;2023-03-22T05:20:41;100832.21;;;8.21;81.91
75551;BME280;65071;53.082;18.218;2023-03-22T05:23:14;100832.52;;;8.24;82.17
75551;BME280;65071;53.082;18.218;2023-03-22T05:25:45;100826.13;;;8.25;81.81
75551;BME280;65071;53.082;18.218;2023-03-22T05:28:16;100821.34;;;8.27;82.65
75551;BME280;65071;53.082;18.218;2023-03-22T05:30:51;100824.52;;;8.27;82.32
75551;BME280;65071;53.082;18.218;2023-03-22T05:33:33;100822.14;;;8.28;82.47
75551;BME280;65071;53.082;18.218;2023-03-22T05:36:01;100824.57;;;8.29;82.88
75551;BME280;65071;53.082;18.218;2023-03-22T05:38:29;100824.04;;;8.31;82.37
75551;BME280;65071;53.082;18.218;2023-03-22T05:40:58;100820.52;;;8.36;81.95
75551;BME280;65071;53.082;18.218;2023-03-22T05:43:25;100821.45;;;8.42;81.99
75551;BME280;65071;53.082;18.218;2023-03-22T05:45:52;100823.20;;;8.46;82.47
75551;BME280;65071;53.082;18.218;2023-03-22T05:48:30;100828.65;;;8.51;82.04
75551;BME280;65071;53.082;18.218;2023-03-22T05:50:57;100828.49;;;8.54;82.00
75551;BME280;65071;53.082;18.218;2023-03-22T05:53:24;100829.13;;;8.59;82.18
75551;BME280;65071;53.082;18.218;2023-03-22T05:55:55;100829.43;;;8.62;82.34
75551;BME280;65071;53.082;18.218;2023-03-22T05:58:23;100826.46;;;8.65;82.09
75551;BME280;65071;53.082;18.218;2023-03-22T06:00:50;100825.45;;;8.66;81.99
75551;BME280;65071;53.082;18.218;2023-03-22T06:03:20;100827.84;;;8.69;82.09
75551;BME280;65071;53.082;18.218;2023-03-22T06:05:53;100832.11;;;8.70;82.28
75551;BME280;65071;53.082;18.218;2023-03-22T06:08:22;100834.75;;;8.70;82.33
75551;BME280;65071;53.082;18.218;2023-03-22T06:10:50;100836.22;;;8.74;82.19
75551;BME280;65071;53.082;18.218;2023-03-22T06:13:18;100832.60;;;8.77;82.51
75551;BME280;65071;53.082;18.218;2023-03-22T06:15:46;100828.88;;;8.80;82.07
75551;BME280;65071;53.082;18.218;2023-03-22T06:18:19;100826.41;;;8.83;82.15
75551;BME280;65071;53.082;18.218;2023-03-22T06:20:50;100825.14;;;8.87;82.13
75551;BME280;65071;53.082;18.218;2023-03-22T06:23:19;100829.14;;;8.93;81.77
75551;BME280;65071;53.082;18.218;2023-03-22T06:25:46;100831.66;;;8.98;82.32
75551;BME280;65071;53.082;18.218;2023-03-22T06:28:14;100831.66;;;9.04;82.25
75551;BME280;65071;53.082;18.218;2023-03-22T06:30:47;100830.45;;;9.07;82.31
75551;BME280;65071;53.082;18.218;2023-03-22T06:33:26;100830.45;;;9.11;82.00
75551;BME280;65071;53.082;18.218;2023-03-22T06:35:57;100831.64;;;9.14;82.23
75551;BME280;65071;53.082;18.218;2023-03-22T06:38:33;100830.13;;;9.16;82.14
75551;BME280;65071;53.082;18.218;2023-03-22T06:40:59;100835.01;;;9.22;81.89
75551;BME280;65071;53.082;18.218;2023-03-22T06:43:26;100831.91;;;9.26;82.04
75551;BME280;65071;53.082;18.218;2023-03-22T06:45:57;100831.98;;;9.29;82.00
75551;BME280;65071;53.082;18.218;2023-03-22T06:48:34;100834.42;;;9.33;81.80
75551;BME280;65071;53.082;18.218;2023-03-22T06:51:05;100833.17;;;9.43;81.72
75551;BME280;65071;53.082;18.218;2023-03-22T06:53:34;100829.16;;;9.53;82.11
75551;BME280;65071;53.082;18.218;2023-03-22T06:56:01;100826.41;;;9.59;82.15
75551;BME280;65071;53.082;18.218;2023-03-22T06:58:28;100824.23;;;9.63;82.19
75551;BME280;65071;53.082;18.218;2023-03-22T07:00:55;100827.97;;;9.67;81.88
75551;BME280;65071;53.082;18.218;2023-03-22T07:03:23;100829.89;;;9.74;81.74
75551;BME280;65071;53.082;18.218;2023-03-22T07:06:05;100834.19;;;9.79;81.55
75551;BME280;65071;53.082;18.218;2023-03-22T07:08:34;100831.09;;;9.81;81.70
75551;BME280;65071;53.082;18.218;2023-03-22T07:11:03;100826.77;;;9.83;81.68
75551;BME280;65071;53.082;18.218;2023-03-22T07:13:30;100816.30;;;9.91;81.23
75551;BME280;65071;53.082;18.218;2023-03-22T07:16:00;100814.88;;;10.00;81.48
75551;BME280;65071;53.082;18.218;2023-03-22T07:18:49;100817.79;;;10.09;81.60
75551;BME280;65071;53.082;18.218;2023-03-22T07:21:16;100823.48;;;10.16;81.45
75551;BME280;65071;53.082;18.218;2023-03-22T07:23:46;100827.02;;;10.24;81.31
75551;BME280;65071;53.082;18.218;2023-03-22T07:26:14;100813.27;;;10.32;81.17
75551;BME280;65071;53.082;18.218;2023-03-22T07:28:42;100810.23;;;10.41;81.14
75551;BME280;65071;53.082;18.218;2023-03-22T07:31:11;100811.16;;;10.47;81.04
75551;BME280;65071;53.082;18.218;2023-03-22T07:33:56;100810.79;;;10.57;80.76
75551;BME280;65071;53.082;18.218;2023-03-22T07:36:25;100809.81;;;10.65;80.59
75551;BME280;65071;53.082;18.218;2023-03-22T07:38:52;100807.69;;;10.71;80.54
75551;BME280;65071;53.082;18.218;2023-03-22T07:41:24;100806.32;;;10.79;80.48
75551;BME280;65071;53.082;18.218;2023-03-22T07:44:30;100809.59;;;10.88;80.43
75551;BME280;65071;53.082;18.218;2023-03-22T07:47:15;100819.77;;;10.98;80.22
75551;BME280;65071;53.082;18.218;2023-03-22T07:49:46;100815.05;;;11.02;80.09
75551;BME280;65071;53.082;18.218;2023-03-22T07:52:17;100819.08;;;11.03;79.84
75551;BME280;65071;53.082;18.218;2023-03-22T07:54:44;100820.63;;;11.03;79.74
75551;BME280;65071;53.082;18.218;2023-03-22T07:57:11;100817.06;;;11.01;79.91
75551;BME280;65071;53.082;18.218;2023-03-22T07:59:42;100812.49;;;11.00;79.74
75551;BME280;65071;53.082;18.218;2023-03-22T08:02:10;100819.77;;;10.96;79.82
75551;BME280;65071;53.082;18.218;2023-03-22T08:04:40;100818.58;;;10.94;80.01
75551;BME280;65071;53.082;18.218;2023-03-22T08:07:12;100814.63;;;10.90;79.92
75551;BME280;65071;53.082;18.218;2023-03-22T08:09:41;100816.14;;;10.89;79.99
75551;BME280;65071;53.082;18.218;2023-03-22T08:12:08;100811.85;;;10.92;79.65
75551;BME280;65071;53.082;18.218;2023-03-22T08:14:35;100809.77;;;10.98;79.59
75551;BME280;65071;53.082;18.218;2023-03-22T08:17:04;100813.68;;;11.03;79.42
75551;BME280;65071;53.082;18.218;2023-03-22T08:19:32;100813.62;;;11.05;79.38
75551;BME280;65071;53.082;18.218;2023-03-22T08:21:59;100816.54;;;11.06;79.63
75551;BME280;65071;53.082;18.218;2023-03-22T08:24:46;100815.14;;;11.08;79.76
75551;BME280;65071;53.082;18.218;2023-03-22T08:27:23;100814.86;;;11.11;79.42
75551;BME280;65071;53.082;18.218;2023-03-22T08:29:50;100811.78;;;11.10;79.54
75551;BME280;65071;53.082;18.218;2023-03-22T08:32:17;100813.83;;;11.10;79.43
75551;BME280;65071;53.082;18.218;2023-03-22T08:34:43;100815.20;;;11.12;79.32
75551;BME280;65071;53.082;18.218;2023-03-22T08:37:11;100821.91;;;11.14;79.32
75551;BME280;65071;53.082;18.218;2023-03-22T08:39:38;100825.58;;;11.13;79.50
75551;BME280;65071;53.082;18.218;2023-03-22T08:42:20;100828.88;;;11.12;80.04
75551;BME280;65071;53.082;18.218;2023-03-22T08:44:47;100828.61;;;11.12;79.46
75551;BME280;65071;53.082;18.218;2023-03-22T08:47:14;100827.42;;;11.07;79.60
75551;BME280;65071;53.082;18.218;2023-03-22T08:49:41;100826.80;;;11.06;79.82
75551;BME280;65071;53.082;18.218;2023-03-22T08:52:16;100829.64;;;11.09;79.73
75551;BME280;65071;53.082;18.218;2023-03-22T08:54:52;100827.41;;;11.11;79.89
75551;BME280;65071;53.082;18.218;2023-03-22T08:57:45;100828.20;;;11.12;79.49
75551;BME280;65071;53.082;18.218;2023-03-22T09:00:35;100827.98;;;11.11;79.70
75551;BME280;65071;53.082;18.218;2023-03-22T09:03:12;100828.27;;;11.11;79.34
75551;BME280;65071;53.082;18.218;2023-03-22T09:05:39;100833.70;;;11.15;79.44
75551;BME280;65071;53.082;18.218;2023-03-22T09:08:07;100832.12;;;11.19;79.40
75551;BME280;65071;53.082;18.218;2023-03-22T09:10:39;100827.73;;;11.25;78.89
75551;BME280;65071;53.082;18.218;2023-03-22T09:13:06;100822.73;;;11.32;78.90
75551;BME280;65071;53.082;18.218;2023-03-22T09:15:34;100821.38;;;11.36;78.53
75551;BME280;65071;53.082;18.218;2023-03-22T09:18:08;100819.33;;;11.44;78.50
75551;BME280;65071;53.082;18.218;2023-03-22T09:20:35;100815.58;;;11.52;78.28
75551;BME280;65071;53.082;18.218;2023-03-22T09:23:03;100816.95;;;11.60;78.23
75551;BME280;65071;53.082;18.218;2023-03-22T09:25:31;100812.79;;;11.74;78.15
75551;BME280;65071;53.082;18.218;2023-03-22T09:27:57;100808.61;;;11.87;77.56
75551;BME280;65071;53.082;18.218;2023-03-22T09:30:24;100805.04;;;12.00;77.58
75551;BME280;65071;53.082;18.218;2023-03-22T09:32:52;100801.58;;;12.09;77.15
75551;BME280;65071;53.082;18.218;2023-03-22T09:35:19;100796.88;;;12.15;77.04
75551;BME280;65071;53.082;18.218;2023-03-22T09:37:58;100793.78;;;12.17;76.56
75551;BME280;65071;53.082;18.218;2023-03-22T09:40:29;100796.59;;;12.20;76.64
75551;BME280;65071;53.082;18.218;2023-03-22T09:43:00;100801.63;;;12.26;76.70
75551;BME280;65071;53.082;18.218;2023-03-22T09:45:42;100802.11;;;12.30;75.80
75551;BME280;65071;53.082;18.218;2023-03-22T09:48:33;100798.20;;;12.31;75.35
75551;BME280;65071;53.082;18.218;2023-03-22T09:51:03;100797.80;;;12.34;75.16
75551;BME280;65071;53.082;18.218;2023-03-22T09:53:31;100793.75;;;12.38;75.13
75551;BME280;65071;53.082;18.218;2023-03-22T10:01:10;100787.41;;;12.67;74.58
75551;BME280;65071;53.082;18.218;2023-03-22T10:06:23;100780.06;;;12.82;74.05
75551;BME280;65071;53.082;18.218;2023-03-22T10:08:56;100781.25;;;12.94;74.24
75551;BME280;65071;53.082;18.218;2023-03-22T10:11:40;100780.56;;;13.00;73.77
75551;BME280;65071;53.082;18.218;2023-03-22T10:16:38;100777.20;;;13.15;73.20
75551;BME280;65071;53.082;18.218;2023-03-22T10:21:58;100775.48;;;13.17;72.83
75551;BME280;65071;53.082;18.218;2023-03-22T10:24:30;100780.51;;;13.14;73.27
75551;BME280;65071;53.082;18.218;2023-03-22T10:26:58;100779.09;;;13.09;73.45
75551;BME280;65071;53.082;18.218;2023-03-22T10:29:29;100781.56;;;13.06;73.18
75551;BME280;65071;53.082;18.218;2023-03-22T10:32:10;100788.08;;;13.04;73.71
75551;BME280;65071;53.082;18.218;2023-03-22T10:34:38;100785.71;;;13.01;73.46
75551;BME280;65071;53.082;18.218;2023-03-22T10:37:05;100791.77;;;12.95;73.36
75551;BME280;65071;53.082;18.218;2023-03-22T10:39:38;100788.31;;;12.90;73.82
75551;BME280;65071;53.082;18.218;2023-03-22T10:42:10;100784.80;;;12.85;73.75
75551;BME280;65071;53.082;18.218;2023-03-22T10:44:59;100779.30;;;12.84;73.58
75551;BME280;65071;53.082;18.218;2023-03-22T10:47:49;100777.48;;;12.82;73.98
75551;BME280;65071;53.082;18.218;2023-03-22T10:50:24;100773.41;;;13.01;73.73
75551;BME280;65071;53.082;18.218;2023-03-22T10:53:00;100776.55;;;13.24;73.61
75551;BME280;65071;53.082;18.218;2023-03-22T10:55:29;100767.45;;;13.48;73.35
75551;BME280;65071;53.082;18.218;2023-03-22T10:58:11;100766.99;;;13.78;72.82
75551;BME280;65071;53.082;18.218;2023-03-22T11:00:43;100768.67;;;14.05;70.83
75551;BME280;65071;53.082;18.218;2023-03-22T11:08:55;100759.04;;;14.51;69.19
75551;BME280;65071;53.082;18.218;2023-03-22T11:11:35;100754.69;;;14.53;69.10
75551;BME280;65071;53.082;18.218;2023-03-22T11:14:12;100754.36;;;14.44;69.08
75551;BME280;65071;53.082;18.218;2023-03-22T11:16:57;100755.83;;;14.46;69.88
75551;BME280;65071;53.082;18.218;2023-03-22T11:19:27;100750.89;;;14.46;68.56
75551;BME280;65071;53.082;18.218;2023-03-22T11:21:58;100750.81;;;14.49;68.03
75551;BME280;65071;53.082;18.218;2023-03-22T11:24:26;100747.19;;;14.62;67.81
75551;BME280;65071;53.082;18.218;2023-03-22T11:27:17;100745.77;;;14.79;67.56
75551;BME280;65071;53.082;18.218;2023-03-22T11:29:51;100741.27;;;14.95;66.39
75551;BME280;65071;53.082;18.218;2023-03-22T11:32:24;100740.10;;;15.12;66.93
75551;BME280;65071;53.082;18.218;2023-03-22T11:35:09;100740.30;;;15.30;66.41
75551;BME280;65071;53.082;18.218;2023-03-22T11:37:45;100737.30;;;15.42;64.93
75551;BME280;65071;53.082;18.218;2023-03-22T11:40:21;100734.43;;;15.52;64.26
75551;BME280;65071;53.082;18.218;2023-03-22T11:42:53;100730.77;;;15.65;64.35
75551;BME280;65071;53.082;18.218;2023-03-22T11:45:27;100725.55;;;15.75;63.54
75551;BME280;65071;53.082;18.218;2023-03-22T11:48:05;100715.20;;;15.87;63.70
75551;BME280;65071;53.082;18.218;2023-03-22T11:50:35;100713.59;;;15.97;63.68
75551;BME280;65071;53.082;18.218;2023-03-22T11:53:06;100709.25;;;16.07;63.10
75551;BME280;65071;53.082;18.218;2023-03-22T11:55:35;100706.65;;;16.09;61.33
75551;BME280;65071;53.082;18.218;2023-03-22T11:58:03;100705.16;;;16.05;60.83
75551;BME280;65071;53.082;18.218;2023-03-22T12:00:33;100704.20;;;15.97;60.43
75551;BME280;65071;53.082;18.218;2023-03-22T12:03:10;100701.45;;;15.97;61.16
75551;BME280;65071;53.082;18.218;2023-03-22T12:05:43;100700.64;;;15.99;61.27
75551;BME280;65071;53.082;18.218;2023-03-22T12:08:20;100700.06;;;16.00;60.93
75551;BME280;65071;53.082;18.218;2023-03-22T12:11:06;100704.98;;;15.98;61.07
75551;BME280;65071;53.082;18.218;2023-03-22T12:13:47;100700.96;;;15.98;60.96
75551;BME280;65071;53.082;18.218;2023-03-22T12:16:20;100701.77;;;15.98;61.15
75551;BME280;65071;53.082;18.218;2023-03-22T12:19:33;100698.20;;;16.04;61.39
75551;BME280;65071;53.082;18.218;2023-03-22T12:22:01;100694.75;;;16.10;60.81
75551;BME280;65071;53.082;18.218;2023-03-22T12:24:30;100699.75;;;16.08;60.36
75551;BME280;65071;53.082;18.218;2023-03-22T12:27:03;100701.76;;;16.08;60.61
75551;BME280;65071;53.082;18.218;2023-03-22T12:29:34;100703.02;;;16.02;59.62
75551;BME280;65071;53.082;18.218;2023-03-22T12:32:09;100705.36;;;15.98;59.50
75551;BME280;65071;53.082;18.218;2023-03-22T12:34:43;100710.88;;;16.00;60.80
75551;BME280;65071;53.082;18.218;2023-03-22T12:37:33;100708.74;;;16.01;60.29
75551;BME280;65071;53.082;18.218;2023-03-22T12:40:05;100706.52;;;15.98;60.21
75551;BME280;65071;53.082;18.218;2023-03-22T12:42:44;100712.97;;;15.98;60.30
75551;BME280;65071;53.082;18.218;2023-03-22T12:45:25;100707.40;;;15.95;59.67
75551;BME280;65071;53.082;18.218;2023-03-22T12:48:05;100703.52;;;15.95;60.53
75551;BME280;65071;53.082;18.218;2023-03-22T12:50:41;100709.55;;;15.99;60.80
75551;BME280;65071;53.082;18.218;2023-03-22T12:53:15;100701.21;;;16.05;60.81
75551;BME280;65071;53.082;18.218;2023-03-22T12:55:43;100704.67;;;16.12;60.49
75551;BME280;65071;53.082;18.218;2023-03-22T12:58:15;100702.86;;;16.18;60.41
75551;BME280;65071;53.082;18.218;2023-03-22T13:00:47;100698.56;;;16.23;59.77
75551;BME280;65071;53.082;18.218;2023-03-22T13:05:43;100691.69;;;16.33;59.24
75551;BME280;65071;53.082;18.218;2023-03-22T13:08:11;100688.27;;;16.34;59.17
75551;BME280;65071;53.082;18.218;2023-03-22T13:10:46;100684.36;;;16.30;58.99
75551;BME280;65071;53.082;18.218;2023-03-22T13:13:32;100682.11;;;16.31;59.47
75551;BME280;65071;53.082;18.218;2023-03-22T13:21:22;100669.48;;;16.36;59.04
75551;BME280;65071;53.082;18.218;2023-03-22T13:26:34;100658.30;;;16.37;59.33
75551;BME280;65071;53.082;18.218;2023-03-22T13:29:14;100655.96;;;16.37;59.38
75551;BME280;65071;53.082;18.218;2023-03-22T13:34:44;100645.08;;;16.35;59.23
75551;BME280;65071;53.082;18.218;2023-03-22T13:37:50;100636.64;;;16.37;59.20
75551;BME280;65071;53.082;18.218;2023-03-22T13:40:35;100630.39;;;16.39;59.51
75551;BME280;65071;53.082;18.218;2023-03-22T13:43:10;100626.38;;;16.40;59.50
75551;BME280;65071;53.082;18.218;2023-03-22T13:46:09;100626.60;;;16.38;59.37
75551;BME280;65071;53.082;18.218;2023-03-22T13:51:13;100615.64;;;16.36;59.38
75551;BME280;65071;53.082;18.218;2023-03-22T13:54:09;100612.52;;;16.37;59.50
75551;BME280;65071;53.082;18.218;2023-03-22T14:02:16;100603.60;;;16.33;58.83
75551;BME280;65071;53.082;18.218;2023-03-22T14:04:56;100609.27;;;16.27;58.98
75551;BME280;65071;53.082;18.218;2023-03-22T14:07:31;100608.27;;;16.21;58.89
75551;BME280;65071;53.082;18.218;2023-03-22T14:10:10;100603.83;;;16.16;59.21
75551;BME280;65071;53.082;18.218;2023-03-22T14:12:52;100597.84;;;16.13;59.51
75551;BME280;65071;53.082;18.218;2023-03-22T14:15:23;100594.56;;;16.12;59.74
75551;BME280;65071;53.082;18.218;2023-03-22T14:18:05;100595.70;;;16.14;59.87
75551;BME280;65071;53.082;18.218;2023-03-22T14:20:35;100590.34;;;16.15;59.83
75551;BME280;65071;53.082;18.218;2023-03-22T14:23:07;100590.80;;;16.16;59.77
75551;BME280;65071;53.082;18.218;2023-03-22T14:25:38;100585.23;;;16.12;59.58
75551;BME280;65071;53.082;18.218;2023-03-22T14:28:05;100581.42;;;16.12;59.77
75551;BME280;65071;53.082;18.218;2023-03-22T14:33:04;100592.27;;;16.08;59.13